Time;durP1;ratioP1;P1;durP2;ratioP2;P2;SDS_P1;SDS_P2;PMS_P1;PMS_P2;Temp;Humidity;BMP_temperature;BMP_pressure;BME280_temperature;BME280_humidity;BME280_pressure;Samples;Min_cycle;Max_cycle;Signal;HPM_P1;HPM_P2
2022/04/28 00:00:44;;;;;;;12.78;6.62;;;;;;;9.46;59.40;101116.00;1720514;82;21600;-53
2022/04/28 00:03:12;;;;;;;12.58;6.40;;;;;;;9.51;59.53;101123.56;1720851;80;21169;-54
2022/04/28 00:05:41;;;;;;;15.35;7.65;;;;;;;9.55;59.66;101118.51;1729823;82;21024;-54
2022/04/28 00:08:09;;;;;;;14.47;6.97;;;;;;;9.59;59.71;101121.78;1737567;80;21028;-54
2022/04/28 00:10:37;;;;;;;15.28;7.85;;;;;;;9.61;59.58;101123.35;1744723;82;21039;-54
2022/04/28 00:13:07;;;;;;;13.75;7.92;;;;;;;9.63;59.70;101121.49;1731031;81;21573;-53
2022/04/28 00:15:35;;;;;;;11.80;7.20;;;;;;;9.64;59.52;101127.09;1729561;82;21732;-54
2022/04/28 00:18:02;;;;;;;13.60;8.50;;;;;;;9.61;59.52;101126.45;1735160;82;21034;-54
2022/04/28 00:20:29;;;;;;;16.20;6.87;;;;;;;9.59;59.57;101132.29;1706854;82;21028;-54
2022/04/28 00:22:56;;;;;;;14.00;7.75;;;;;;;9.58;59.54;101128.83;1708598;82;21115;-54
2022/04/28 00:25:24;;;;;;;17.57;8.10;;;;;;;9.55;59.51;101130.78;1716625;83;21675;-54
2022/04/28 00:27:54;;;;;;;17.10;8.18;;;;;;;9.49;59.62;101127.60;1717384;82;21367;-54
2022/04/28 00:30:20;;;;;;;18.92;7.95;;;;;;;9.42;59.63;101132.88;1711165;83;20993;-54
2022/04/28 00:32:48;;;;;;;12.82;8.20;;;;;;;9.37;59.65;101134.12;1724809;82;21127;-53
2022/04/28 00:35:16;;;;;;;13.55;8.05;;;;;;;9.32;59.71;101135.72;1727188;83;21584;-54
2022/04/28 00:37:43;;;;;;;16.90;8.63;;;;;;;9.28;59.85;101134.23;1713833;82;21099;-53
2022/04/28 00:40:12;;;;;;;11.63;7.35;;;;;;;9.23;60.00;101135.83;1708368;81;21067;-54
2022/04/28 00:42:41;;;;;;;11.25;6.62;;;;;;;9.23;60.39;101138.45;1702643;82;21021;-53
2022/04/28 00:45:08;;;;;;;11.45;6.08;;;;;;;9.30;60.82;101135.81;1713129;82;21028;-53
2022/04/28 00:50:38;;;;;;;16.75;7.78;;;;;;;9.39;61.07;101146.20;1717266;82;21561;-54
2022/04/28 00:53:07;;;;;;;13.13;8.18;;;;;;;9.42;61.31;101146.02;1724572;81;21148;-52
2022/04/28 00:55:33;;;;;;;14.98;7.25;;;;;;;9.43;61.25;101146.41;1731270;82;21016;-53
2022/04/28 00:58:02;;;;;;;15.08;7.05;;;;;;;9.42;61.40;101140.77;1767972;78;21441;-53
2022/04/28 01:00:29;;;;;;;11.85;7.28;;;;;;;9.45;61.60;101141.05;1781724;78;21071;-53
2022/04/28 01:02:56;;;;;;;13.03;7.60;;;;;;;9.47;61.59;101141.80;1768797;78;21050;-53
2022/04/28 01:05:26;;;;;;;11.55;7.00;;;;;;;9.48;61.64;101146.95;1775936;78;21067;-53
2022/04/28 01:07:54;;;;;;;13.18;7.25;;;;;;;9.42;61.75;101152.58;1779481;78;21078;-53
2022/04/28 01:10:21;;;;;;;11.70;7.35;;;;;;;9.39;61.91;101142.27;1738113;79;21015;-53
2022/04/28 01:12:50;;;;;;;11.43;6.95;;;;;;;9.35;61.91;101144.73;1802670;78;21099;-54
2022/04/28 01:15:18;;;;;;;13.40;7.75;;;;;;;9.31;62.15;101143.22;1717334;82;21044;-53
2022/04/28 01:17:46;;;;;;;13.22;7.12;;;;;;;9.30;62.44;101142.86;1721499;82;21035;-53
2022/04/28 01:20:13;;;;;;;11.08;6.17;;;;;;;9.33;62.64;101138.73;1720365;81;21040;-52
2022/04/28 01:22:42;;;;;;;13.45;6.30;;;;;;;9.39;62.85;101140.12;1728284;82;21024;-53
2022/04/28 01:25:15;;;;;;;11.35;6.67;;;;;;;9.45;62.90;101139.74;1760669;79;21091;-53
2022/04/28 01:27:41;;;;;;;12.93;7.25;;;;;;;9.46;62.98;101141.41;1708994;82;21107;-53
2022/04/28 01:30:14;;;;;;;11.43;6.55;;;;;;;9.47;62.99;101141.31;1790306;78;21230;-52
2022/04/28 01:32:44;;;;;;;13.40;8.00;;;;;;;9.49;62.93;101141.22;1770948;79;29523;-53
2022/04/28 01:35:12;;;;;;;14.45;7.92;;;;;;;9.46;62.93;101144.03;1759636;79;21068;-53
2022/04/28 01:37:41;;;;;;;10.95;6.53;;;;;;;9.43;62.91;101142.47;1721749;82;20969;-53
2022/04/28 01:40:13;;;;;;;12.47;7.15;;;;;;;9.38;62.87;101143.67;1711801;81;20992;-53
2022/04/28 01:42:41;;;;;;;14.23;7.70;;;;;;;9.32;62.99;101138.83;1708929;84;21245;-54
2022/04/28 01:45:09;;;;;;;13.70;8.55;;;;;;;9.27;63.13;101142.56;1714440;81;21091;-54
2022/04/28 01:47:41;;;;;;;13.20;7.03;;;;;;;9.22;63.25;101142.48;1708018;83;21526;-54
2022/04/28 01:50:20;;;;;;;9.93;6.33;;;;;;;9.18;63.69;101141.84;1719818;82;21518;-53
2022/04/28 01:55:45;;;;;;;14.13;6.97;;;;;;;9.25;64.02;101129.17;1761111;79;21157;-53
2022/04/28 01:58:20;;;;;;;12.20;7.42;;;;;;;9.26;64.31;101136.09;1728692;79;21004;-53
2022/04/28 02:00:50;;;;;;;13.90;7.37;;;;;;;9.27;64.64;101136.00;1776647;79;21044;-53
2022/04/28 02:03:17;;;;;;;16.90;8.13;;;;;;;9.27;64.82;101129.91;1760803;79;21024;-53
2022/04/28 02:05:45;;;;;;;13.60;7.00;;;;;;;9.24;64.99;101127.00;1775721;80;21539;-53
2022/04/28 02:08:12;;;;;;;13.28;7.05;;;;;;;9.24;65.07;101127.47;1773385;79;21533;-53
2022/04/28 02:10:39;;;;;;;11.20;7.10;;;;;;;9.20;65.04;101129.45;1781794;79;21531;-53
2022/04/28 02:13:08;;;;;;;12.55;7.28;;;;;;;9.18;64.99;101133.97;1785385;79;21004;-53
2022/04/28 02:15:50;;;;;;;11.55;6.78;;;;;;;9.14;64.88;101134.24;1761093;80;21059;-53
2022/04/28 02:18:19;;;;;;;14.10;6.40;;;;;;;9.13;64.89;101127.29;1727902;79;20988;-53
2022/04/28 02:20:47;;;;;;;13.22;6.55;;;;;;;9.19;64.53;101128.23;1772329;79;21161;-52
2022/04/28 02:23:14;;;;;;;14.10;7.55;;;;;;;9.25;64.10;101137.88;1787539;79;21048;-54
2022/04/28 02:25:43;;;;;;;13.50;6.83;;;;;;;9.30;63.83;101132.35;1771997;79;22229;-53
2022/04/28 02:28:11;;;;;;;12.85;6.65;;;;;;;9.32;63.78;101140.14;1767559;79;21023;-54
2022/04/28 02:30:39;;;;;;;12.35;7.47;;;;;;;9.30;63.66;101135.81;1765477;79;21043;-53
2022/04/28 02:33:09;;;;;;;11.83;6.78;;;;;;;9.25;63.75;101128.70;1786333;79;21131;-53
2022/04/28 02:35:54;;;;;;;16.35;7.67;;;;;;;9.21;63.80;101131.16;1781506;78;21028;-53
2022/04/28 02:38:20;;;;;;;14.95;7.83;;;;;;;9.09;63.94;101128.82;1776887;79;21087;-53
2022/04/28 02:40:47;;;;;;;13.25;6.62;;;;;;;9.01;64.17;101129.77;1793118;79;21512;-53
2022/04/28 02:43:15;;;;;;;13.18;6.72;;;;;;;8.98;64.29;101131.70;1790108;79;21063;-53
2022/04/28 02:45:43;;;;;;;12.80;6.35;;;;;;;9.00;64.31;101128.06;1780072;79;21051;-53
2022/04/28 02:48:12;;;;;;;11.70;6.17;;;;;;;9.05;64.24;101133.87;1737364;79;20995;-53
2022/04/28 02:50:40;;;;;;;13.65;7.03;;;;;;;9.05;64.12;101135.19;1752148;79;20984;-53
2022/04/28 02:53:07;;;;;;;10.55;6.65;;;;;;;9.06;64.22;101132.94;1746506;79;21047;-53
2022/04/28 02:55:35;;;;;;;11.43;6.15;;;;;;;9.06;64.06;101134.70;1778529;79;21024;-53
2022/04/28 02:58:02;;;;;;;15.10;7.33;;;;;;;9.05;64.04;101131.72;1769078;79;21130;-53
2022/04/28 03:00:29;;;;;;;10.38;5.85;;;;;;;9.06;64.00;101133.39;1766238;78;21099;-53
2022/04/28 03:03:00;;;;;;;12.20;7.17;;;;;;;9.05;63.85;101135.19;1733710;82;21525;-53
2022/04/28 03:05:27;;;;;;;11.43;6.87;;;;;;;9.01;63.85;101138.08;1776446;79;21059;-53
2022/04/28 03:10:49;;;;;;;12.93;6.42;;;;;;;8.96;64.24;101146.70;1785666;79;21252;-53
2022/04/28 03:13:22;;;;;;;12.65;6.53;;;;;;;8.97;64.27;101150.55;1785229;79;21114;-54
2022/04/28 03:15:50;;;;;;;10.85;6.45;;;;;;;9.02;64.20;101145.03;1762317;79;21079;-54
2022/04/28 03:18:18;;;;;;;11.18;6.12;;;;;;;9.09;64.21;101151.14;1758866;79;21051;-53
2022/04/28 03:20:45;;;;;;;11.88;6.47;;;;;;;9.18;64.39;101158.91;1764508;79;21032;-54
2022/04/28 03:23:14;;;;;;;10.93;6.65;;;;;;;9.22;64.64;101152.52;1721377;82;21561;-54
2022/04/28 03:25:41;;;;;;;11.22;6.08;;;;;;;9.26;64.86;101162.36;1774891;79;21052;-54
2022/04/28 03:28:10;;;;;;;11.88;6.78;;;;;;;9.28;65.05;101165.75;1778064;80;21051;-54
2022/04/28 03:30:37;;;;;;;12.93;6.33;;;;;;;9.30;65.08;101171.75;1779997;79;21093;-53
2022/04/28 03:33:09;;;;;;;16.75;6.83;;;;;;;9.32;65.09;101172.97;1794750;79;21051;-53
2022/04/28 03:35:36;;;;;;;12.20;7.05;;;;;;;9.32;65.11;101172.97;1785320;79;21120;-53
2022/04/28 03:38:05;;;;;;;14.07;6.60;;;;;;;9.34;65.08;101174.55;1772248;80;21192;-53
2022/04/28 03:40:32;;;;;;;11.65;6.55;;;;;;;9.40;64.88;101178.11;1725125;81;21079;-53
2022/04/28 03:43:00;;;;;;;13.93;6.08;;;;;;;9.48;64.73;101173.67;1729979;81;21038;-53
2022/04/28 03:45:27;;;;;;;12.50;6.42;;;;;;;9.57;64.62;101173.59;1795703;79;22281;-53
2022/04/28 03:47:54;;;;;;;13.35;5.92;;;;;;;9.67;64.34;101178.63;1795534;79;21064;-54
2022/04/28 03:50:22;;;;;;;10.00;5.65;;;;;;;9.71;64.22;101179.27;1728774;81;21074;-54
2022/04/28 03:52:48;;;;;;;10.60;5.62;;;;;;;9.78;64.23;101189.28;1731048;82;21048;-54
2022/04/28 03:55:15;;;;;;;10.03;5.53;;;;;;;9.88;64.16;101188.70;1790500;79;21077;-54
2022/04/28 03:57:43;;;;;;;10.13;5.80;;;;;;;9.97;64.16;101192.91;1798818;79;21529;-54
2022/04/28 04:00:13;;;;;;;10.23;5.28;;;;;;;10.06;64.03;101190.63;1789764;78;20987;-54
2022/04/28 04:02:39;;;;;;;8.68;4.72;;;;;;;10.11;63.62;101192.00;1801127;79;20987;-52
2022/04/28 04:05:07;;;;;;;7.72;4.15;;;;;;;10.17;63.03;101194.70;1725523;81;21131;-52
2022/04/28 04:07:38;;;;;;;8.48;3.70;;;;;;;10.22;62.25;101200.49;1777284;80;21106;-55
2022/04/28 04:10:22;;;;;;;5.87;2.83;;;;;;;10.28;61.31;101205.84;1781992;79;21070;-53
2022/04/28 04:12:52;;;;;;;7.55;3.45;;;;;;;10.30;60.61;101213.16;1774849;79;21035;-52
2022/04/28 04:15:20;;;;;;;7.78;3.83;;;;;;;10.33;60.55;101219.57;1779461;79;21067;-53
2022/04/28 04:17:50;;;;;;;7.37;3.55;;;;;;;10.39;60.33;101229.70;1719313;81;21031;-53
2022/04/28 04:20:18;;;;;;;6.65;3.50;;;;;;;10.47;60.22;101242.33;1780148;78;21071;-54
2022/04/28 04:22:46;;;;;;;7.70;3.17;;;;;;;10.55;60.18;101242.19;1799516;78;21014;-53
2022/04/28 04:25:15;;;;;;;9.03;4.22;;;;;;;10.70;60.16;101234.23;1788902;78;21057;-53
2022/04/28 04:27:43;;;;;;;8.30;3.70;;;;;;;10.85;60.02;101227.93;1802975;78;21510;-53
2022/04/28 04:33:14;;;;;;;9.00;4.10;;;;;;;11.04;58.31;101224.05;1801156;78;21040;-53
2022/04/28 04:35:41;;;;;;;7.87;3.90;;;;;;;11.06;58.08;101226.09;1781561;78;21046;-54
2022/04/28 04:38:08;;;;;;;8.30;4.03;;;;;;;11.05;57.86;101240.23;1791341;78;21118;-53
2022/04/28 04:40:36;;;;;;;6.92;3.62;;;;;;;11.04;57.76;101235.89;1783553;78;21027;-52
2022/04/28 04:43:09;;;;;;;8.65;3.85;;;;;;;11.02;57.96;101232.05;1794041;78;21585;-54
2022/04/28 04:45:33;;;;;;;7.55;3.62;;;;;;;11.03;57.97;101240.78;1787176;78;21529;-53
2022/04/28 04:48:07;;;;;;;7.37;3.50;;;;;;;11.05;57.96;101236.28;1730632;82;21504;-51
2022/04/28 04:50:42;;;;;;;8.55;3.70;;;;;;;11.07;57.85;101239.64;1749197;79;22024;-52
2022/04/28 04:53:11;;;;;;;6.37;3.05;;;;;;;11.10;57.83;101235.00;1778711;79;21133;-53
2022/04/28 04:55:38;;;;;;;8.68;3.87;;;;;;;11.14;57.83;101238.27;1784190;78;21059;-52
2022/04/28 04:58:07;;;;;;;7.58;3.85;;;;;;;11.19;57.55;101235.31;1781719;79;21114;-52
2022/04/28 05:00:36;;;;;;;9.70;3.80;;;;;;;11.23;56.93;101235.46;1788056;78;21022;-52
2022/04/28 05:03:21;;;;;;;9.93;3.93;;;;;;;11.26;56.57;101238.75;1786263;79;21188;-53
2022/04/28 05:05:53;;;;;;;9.30;4.50;;;;;;;11.28;56.21;101233.35;1760202;78;21352;-52
2022/04/28 05:08:22;;;;;;;8.40;3.42;;;;;;;11.30;55.99;101236.75;1779383;78;21114;-53
2022/04/28 05:10:54;;;;;;;7.12;3.62;;;;;;;11.33;55.78;101243.95;1765565;78;21528;-53
2022/04/28 05:13:20;;;;;;;13.80;4.78;;;;;;;11.36;55.87;101240.73;1795271;78;21532;-52
2022/04/28 05:15:49;;;;;;;8.30;4.87;;;;;;;11.41;55.76;101239.94;1776974;78;21170;-53
2022/04/28 05:18:21;;;;;;;7.45;4.37;;;;;;;11.47;55.79;101244.30;1759092;78;21072;-52
2022/04/28 05:20:52;;;;;;;9.45;4.15;;;;;;;11.57;55.72;101246.31;1768926;79;21075;-53
2022/04/28 05:23:27;;;;;;;13.13;4.20;;;;;;;11.66;55.82;101254.38;1756664;79;26530;-53
2022/04/28 05:25:56;;;;;;;14.53;4.55;;;;;;;11.79;55.67;101250.89;1688376;82;21044;-54
2022/04/28 05:28:29;;;;;;;13.53;4.40;;;;;;;11.89;55.59;101254.55;1793273;79;21196;-53
2022/04/28 05:31:02;;;;;;;11.00;4.83;;;;;;;11.97;54.81;101252.25;1738676;79;21004;-53
2022/04/28 05:33:31;;;;;;;8.40;4.25;;;;;;;11.99;54.64;101253.45;1781129;78;20972;-53
2022/04/28 05:36:18;;;;;;;9.40;4.20;;;;;;;12.01;54.93;101254.18;1787197;79;21079;-53
2022/04/28 05:38:46;;;;;;;9.78;4.45;;;;;;;11.99;54.85;101255.61;1798406;79;21068;-53
2022/04/28 05:41:12;;;;;;;10.70;4.60;;;;;;;11.99;54.74;101255.61;1792407;78;21243;-53
2022/04/28 05:46:25;;;;;;;10.78;4.83;;;;;;;11.99;54.77;101257.41;1785057;79;21028;-53
2022/04/28 05:48:53;;;;;;;9.98;4.40;;;;;;;11.99;54.70;101256.09;1780383;78;21032;-53
2022/04/28 05:51:21;;;;;;;12.63;4.97;;;;;;;11.99;54.32;101255.61;1725645;81;21036;-53
2022/04/28 05:53:49;;;;;;;9.95;3.83;;;;;;;12.02;54.36;101261.98;1726132;82;21122;-53
2022/04/28 05:56:17;;;;;;;10.53;4.05;;;;;;;12.07;53.83;101265.13;1710644;80;21020;-53
2022/04/28 05:58:46;;;;;;;10.05;4.22;;;;;;;12.11;53.96;101263.59;1788819;79;21491;-53
2022/04/28 06:01:14;;;;;;;11.83;3.72;;;;;;;12.18;54.07;101263.02;1728635;79;21030;-53
2022/04/28 06:03:43;;;;;;;9.23;3.77;;;;;;;12.23;54.10;101266.65;1781406;79;21091;-53
2022/04/28 06:06:12;;;;;;;9.48;3.92;;;;;;;12.28;53.73;101275.56;1770603;79;21254;-53
2022/04/28 06:08:41;;;;;;;9.83;3.77;;;;;;;12.31;53.54;101279.30;1771954;80;21007;-52
2022/04/28 06:11:07;;;;;;;8.70;3.70;;;;;;;12.37;53.35;101279.69;1749875;80;21043;-52
2022/04/28 06:13:36;;;;;;;7.72;3.58;;;;;;;12.43;53.17;101275.27;1715159;82;21157;-52
2022/04/28 06:16:07;;;;;;;9.98;3.75;;;;;;;12.51;52.91;101277.35;1781672;79;21052;-52
2022/04/28 06:18:36;;;;;;;10.60;3.55;;;;;;;12.58;52.60;101274.61;1720323;81;21250;-52
2022/04/28 06:21:05;;;;;;;11.68;3.72;;;;;;;12.66;52.51;101275.38;1719996;80;21075;-52
2022/04/28 06:23:39;;;;;;;7.80;3.05;;;;;;;12.75;51.89;101275.16;1732196;80;21004;-53
2022/04/28 06:26:07;;;;;;;9.10;3.40;;;;;;;12.83;51.83;101274.94;1730660;82;21035;-53
2022/04/28 06:30:27;;;;;;;9.08;3.02;;;;;;;13.03;50.77;101273.05;1790113;79;22310;-53
2022/04/28 06:32:59;;;;;;;7.05;2.20;;;;;;;13.07;49.93;101273.20;1758347;80;21012;-53
2022/04/28 06:35:38;;;;;;;7.97;2.72;;;;;;;13.16;50.22;101284.37;1768128;80;21980;-53
2022/04/28 06:38:05;;;;;;;12.55;3.20;;;;;;;13.29;49.90;101286.92;1775893;80;20963;-53
2022/04/28 06:40:33;;;;;;;10.40;2.77;;;;;;;13.38;48.35;101283.58;1772352;80;21054;-53
2022/04/28 06:42:59;;;;;;;8.48;3.70;;;;;;;13.47;47.69;101288.17;1767215;80;21132;-53
2022/04/28 06:45:26;;;;;;;8.63;3.30;;;;;;;13.59;46.72;101286.37;1764165;80;20998;-53
2022/04/28 06:48:06;;;;;;;11.25;5.12;;;;;;;13.69;45.78;101278.56;1687710;80;21579;-53
2022/04/28 06:50:41;;;;;;;10.23;3.55;;;;;;;13.81;45.11;101284.19;1785058;80;21033;-53
2022/04/28 06:53:23;;;;;;;5.47;2.17;;;;;;;13.91;43.78;101287.78;1779179;80;21033;-52
2022/04/28 06:55:52;;;;;;;6.62;2.02;;;;;;;13.98;40.51;101286.81;1769540;80;21280;-52
2022/04/28 06:58:21;;;;;;;5.95;2.33;;;;;;;14.03;40.64;101292.57;1765686;80;21034;-53
2022/04/28 07:00:49;;;;;;;6.15;2.67;;;;;;;14.11;40.22;101292.80;1772589;80;21157;-53
2022/04/28 07:03:18;;;;;;;8.95;2.70;;;;;;;14.19;39.04;101292.20;1763583;80;21077;-53
2022/04/28 07:05:46;;;;;;;7.42;2.42;;;;;;;14.24;40.94;101292.66;1778447;80;21089;-53
2022/04/28 07:08:13;;;;;;;7.30;2.65;;;;;;;14.30;40.51;101296.11;1785782;80;21062;-52
2022/04/28 07:10:42;;;;;;;5.65;1.80;;;;;;;14.40;38.85;101295.38;1775897;80;21075;-53
2022/04/28 07:13:09;;;;;;;7.25;2.42;;;;;;;14.46;38.85;101299.69;1761664;79;21207;-53
2022/04/28 07:15:56;;;;;;;5.10;1.57;;;;;;;14.48;37.84;101299.07;1770542;80;21034;-52
2022/04/28 07:18:36;;;;;;;8.10;1.65;;;;;;;14.48;38.08;101295.10;1722154;80;21090;-53
2022/04/28 07:21:03;;;;;;;4.72;1.82;;;;;;;14.50;37.89;101301.59;1781163;80;21011;-52
2022/04/28 07:23:31;;;;;;;5.15;1.50;;;;;;;14.53;37.43;101301.34;1781153;80;21062;-51
2022/04/28 07:25:58;;;;;;;6.92;1.82;;;;;;;14.56;36.54;101303.75;1767163;80;22410;-52
2022/04/28 07:28:27;;;;;;;8.45;2.02;;;;;;;14.57;35.13;101300.12;1762368;80;21079;-52
2022/04/28 07:31:03;;;;;;;5.92;1.35;;;;;;;14.58;35.84;101305.78;1759911;80;21109;-52
2022/04/28 07:33:35;;;;;;;3.10;1.22;;;;;;;14.56;35.91;101297.13;1740130;80;21062;-53
2022/04/28 07:36:21;;;;;;;;;;;;;;;14.56;36.01;101293.62;1765388;80;21603;-54
2022/04/28 07:39:06;;;;;;;5.12;1.35;;;;;;;14.57;35.42;101300.61;1766840;80;21170;-54
2022/04/28 07:41:35;;;;;;;4.10;1.37;;;;;;;14.56;35.12;101301.56;1764413;80;21082;-54
2022/04/28 07:44:01;;;;;;;5.62;1.05;;;;;;;14.63;35.89;101297.50;1766364;80;21030;-54
2022/04/28 07:46:28;;;;;;;3.72;1.27;;;;;;;14.73;35.41;101302.88;1755536;80;21102;-54
2022/04/28 07:48:55;;;;;;;3.65;1.00;;;;;;;14.86;34.19;101299.07;1754401;80;21039;-54
2022/04/28 07:51:22;;;;;;;2.77;1.10;;;;;;;14.96;33.75;101308.42;1760384;80;21150;-54
2022/04/28 07:53:49;;;;;;;4.60;1.20;;;;;;;15.05;33.92;101304.16;1757496;79;21095;-54
2022/04/28 07:56:20;;;;;;;5.50;1.45;;;;;;;15.15;33.79;101309.52;1752071;80;21019;-52
2022/04/28 07:58:48;;;;;;;3.00;0.80;;;;;;;15.23;33.35;101311.00;1760562;80;21110;-51
2022/04/28 08:01:25;;;;;;;3.52;1.10;;;;;;;15.31;33.45;101309.88;1761587;80;21036;-53
2022/04/28 08:03:51;;;;;;;4.87;1.42;;;;;;;15.40;34.51;101309.09;1758336;80;21140;-53
2022/04/28 08:06:19;;;;;;;3.75;0.95;;;;;;;15.49;33.14;101312.77;1762097;80;21075;-53
2022/04/28 08:08:46;;;;;;;5.53;1.22;;;;;;;15.57;33.72;101317.42;1755924;80;21589;-53
2022/04/28 08:11:14;;;;;;;3.52;1.30;;;;;;;15.66;33.75;101313.95;1762826;80;21047;-52
2022/04/28 08:13:41;;;;;;;4.33;1.30;;;;;;;15.76;33.49;101314.86;1761323;80;21116;-53
2022/04/28 08:16:11;;;;;;;6.17;1.60;;;;;;;15.83;33.93;101305.88;1767404;80;21086;-53
2022/04/28 08:18:41;;;;;;;4.42;1.25;;;;;;;15.95;34.02;101309.27;1751741;80;21546;-53
2022/04/28 08:21:11;;;;;;;5.45;1.40;;;;;;;16.05;33.60;101311.45;1760768;80;21098;-52
2022/04/28 08:23:38;;;;;;;5.08;1.20;;;;;;;16.11;33.67;101312.25;1765654;80;21026;-53
2022/04/28 08:26:06;;;;;;;4.30;1.40;;;;;;;16.17;33.28;101310.86;1779305;80;21046;-52
2022/04/28 08:28:34;;;;;;;5.08;1.70;;;;;;;16.20;33.30;101314.57;1758410;80;21516;-52
2022/04/28 08:31:02;;;;;;;5.40;1.90;;;;;;;16.26;33.87;101313.20;1753342;80;21087;-52
2022/04/28 08:33:29;;;;;;;4.92;1.70;;;;;;;16.32;33.72;101314.82;1744505;80;21015;-53
2022/04/28 08:35:57;;;;;;;6.45;1.85;;;;;;;16.39;33.87;101308.47;1752306;80;21051;-52
2022/04/28 08:38:24;;;;;;;4.97;2.10;;;;;;;16.43;32.54;101311.19;1753573;80;21031;-52
2022/04/28 08:41:01;;;;;;;5.72;1.72;;;;;;;16.39;32.73;101310.27;1757853;80;21125;-52
2022/04/28 08:43:32;;;;;;;5.30;2.08;;;;;;;16.35;33.49;101313.19;1657052;83;21055;-52
2022/04/28 08:46:52;;;;;;;6.72;1.70;;;;;;;16.36;33.31;101311.39;1725932;80;21579;-52
2022/04/28 08:48:38;;;;;;;4.20;1.40;;;;;;;16.33;32.20;101307.19;1739331;80;21079;-53
2022/04/28 08:51:09;;;;;;;5.80;1.55;;;;;;;16.31;33.43;101308.31;1723575;80;21926;-52
2022/04/28 08:53:38;;;;;;;4.42;1.20;;;;;;;16.33;33.31;101311.17;1746767;80;22490;-53
2022/04/28 08:56:07;;;;;;;4.25;1.30;;;;;;;16.40;33.12;101308.80;1759971;80;20991;-52
2022/04/28 08:58:34;;;;;;;3.83;1.30;;;;;;;16.44;32.48;101310.22;1722134;80;21551;-52
2022/04/28 09:01:03;;;;;;;2.90;0.82;;;;;;;16.48;32.43;101306.30;1757245;80;21110;-52
2022/04/28 09:03:38;;;;;;;3.50;1.00;;;;;;;16.51;32.31;101298.05;1745781;80;21564;-53
2022/04/28 09:06:29;;;;;;;8.88;1.22;;;;;;;16.50;31.79;101300.84;1652526;84;21183;-52
2022/04/28 09:08:58;;;;;;;3.10;1.02;;;;;;;16.42;31.78;101291.40;1650327;84;21134;-53
2022/04/28 09:11:28;;;;;;;2.65;0.65;;;;;;;16.38;31.77;101296.66;1701967;80;21026;-53
2022/04/28 09:14:18;;;;;;;4.47;1.15;;;;;;;16.36;32.70;101292.80;1769382;80;21348;-53
2022/04/28 09:16:52;;;;;;;3.98;1.00;;;;;;;16.34;31.26;101283.64;1771257;80;21332;-54
2022/04/28 09:19:38;;;;;;;3.20;1.10;;;;;;;16.31;31.01;101280.43;1758028;80;21156;-53
2022/04/28 09:22:13;;;;;;;1.75;0.60;;;;;;;16.28;30.67;101284.69;1756125;80;21084;-52
2022/04/28 09:24:46;;;;;;;2.50;0.70;;;;;;;16.18;30.37;101290.47;1744832;80;21130;-52
2022/04/28 09:27:16;;;;;;;2.67;0.90;;;;;;;16.14;31.69;101293.89;1750595;80;21417;-53
2022/04/28 09:29:44;;;;;;;4.10;1.32;;;;;;;16.12;32.06;101287.86;1756559;80;21086;-52
2022/04/28 09:32:13;;;;;;;5.55;1.10;;;;;;;16.14;32.54;101298.70;1694573;82;21015;-52
2022/04/28 09:34:50;;;;;;;3.65;1.15;;;;;;;16.16;32.58;101287.45;1744283;80;21124;-53
2022/04/28 09:37:40;;;;;;;3.05;1.00;;;;;;;16.23;32.51;101290.40;1768044;80;21540;-53
2022/04/28 09:42:57;;;;;;;4.17;1.30;;;;;;;16.37;32.35;101294.97;1765770;80;21599;-53
2022/04/28 09:45:25;;;;;;;4.15;1.30;;;;;;;16.49;33.26;101285.88;1733689;80;21200;-53
2022/04/28 09:48:03;;;;;;;3.15;1.00;;;;;;;16.50;31.96;101279.09;1764901;80;21496;-52
2022/04/28 09:50:33;;;;;;;3.35;1.10;;;;;;;16.44;32.51;101290.30;1757998;80;20995;-53
2022/04/28 09:53:05;;;;;;;6.67;1.80;;;;;;;16.44;32.85;101275.69;1756556;80;22034;-53
2022/04/28 09:55:36;;;;;;;4.37;1.47;;;;;;;16.51;32.14;101278.63;1740294;80;21044;-53
2022/04/28 09:58:21;;;;;;;5.35;1.10;;;;;;;16.58;32.46;101290.36;1762169;80;21148;-52
2022/04/28 10:00:49;;;;;;;5.03;1.40;;;;;;;16.66;32.72;101296.28;1759722;80;21051;-52
2022/04/28 10:03:16;;;;;;;3.60;1.10;;;;;;;16.70;33.09;101291.89;1763636;80;21050;-52
2022/04/28 10:05:43;;;;;;;3.30;1.30;;;;;;;16.74;33.69;101288.45;1724857;82;21083;-52
2022/04/28 10:08:14;;;;;;;3.45;1.20;;;;;;;16.73;33.29;101284.14;1757859;80;21019;-53
2022/04/28 10:10:42;;;;;;;3.55;1.42;;;;;;;16.67;32.99;101292.66;1769973;80;21000;-52
2022/04/28 10:13:09;;;;;;;3.70;1.27;;;;;;;16.67;33.91;101295.32;1756027;80;21078;-52
2022/04/28 10:15:55;;;;;;;2.98;1.10;;;;;;;16.67;33.39;101288.68;1756150;80;22629;-52
2022/04/28 10:18:27;;;;;;;3.42;1.00;;;;;;;16.69;33.31;101292.02;1759051;80;21046;-52
2022/04/28 10:20:58;;;;;;;3.60;1.22;;;;;;;16.66;33.28;101289.64;1761470;80;21065;-52
2022/04/28 10:32:24;;;;;;;3.67;0.90;;;;;;;16.47;33.10;101293.15;1757636;81;21070;-53
2022/04/28 10:35:06;;;;;;;2.52;0.82;;;;;;;16.42;33.45;101292.73;1749440;81;21039;-54
2022/04/28 10:37:38;;;;;;;2.15;0.62;;;;;;;16.40;33.30;101292.86;1754390;81;21091;-52
2022/04/28 10:40:07;;;;;;;3.10;0.85;;;;;;;16.38;33.20;101286.86;1744274;81;21092;-53
2022/04/28 10:42:39;;;;;;;2.50;0.85;;;;;;;16.34;33.54;101288.95;1752977;81;21036;-53
2022/04/28 10:45:19;;;;;;;2.67;0.72;;;;;;;16.36;33.73;101292.80;1752785;81;22132;-53
2022/04/28 10:47:46;;;;;;;2.72;0.80;;;;;;;16.40;33.23;101288.88;1747826;81;21039;-53
2022/04/28 10:50:23;;;;;;;6.50;1.20;;;;;;;16.48;33.14;101287.70;1748015;81;22991;-53
2022/04/28 10:53:01;;;;;;;3.30;0.90;;;;;;;16.55;33.72;101284.00;1743069;81;21026;-53
2022/04/28 10:55:44;;;;;;;3.62;1.15;;;;;;;16.61;33.12;101278.13;1667367;84;21040;-53
2022/04/28 10:58:21;;;;;;;2.92;0.98;;;;;;;16.63;32.80;101280.16;1754733;81;21536;-53
2022/04/28 11:00:59;;;;;;;3.27;1.30;;;;;;;16.59;31.99;101280.56;1743158;81;20995;-52
2022/04/28 11:03:57;;;;;;;4.62;1.02;;;;;;;16.60;32.21;101271.63;1747653;81;21004;-53
2022/04/28 11:06:34;;;;;;;4.22;1.50;;;;;;;16.65;32.02;101274.70;1743640;81;21567;-53
2022/04/28 11:09:04;;;;;;;4.17;1.65;;;;;;;16.74;32.05;101271.19;1751216;81;21401;-53
2022/04/28 11:11:46;;;;;;;6.12;1.60;;;;;;;16.81;31.36;101267.47;1749303;81;21055;-53
2022/04/28 11:14:14;;;;;;;2.92;0.88;;;;;;;16.87;31.21;101265.61;1738208;80;21031;-52
2022/04/28 11:16:42;;;;;;;4.37;1.32;;;;;;;16.94;31.88;101265.38;1749010;81;21147;-52
2022/04/28 11:19:09;;;;;;;4.00;1.57;;;;;;;17.05;32.14;101265.73;1745799;81;21100;-52
2022/04/28 11:21:43;;;;;;;5.10;1.60;;;;;;;17.24;31.87;101266.16;1747650;80;21103;-54
2022/04/28 11:24:10;;;;;;;3.83;1.27;;;;;;;17.45;31.95;101256.14;1739520;81;21031;-53
2022/04/28 11:26:39;;;;;;;3.02;1.10;;;;;;;17.74;32.02;101255.66;1742911;81;21046;-54
2022/04/28 11:29:09;;;;;;;3.50;1.22;;;;;;;17.91;30.74;101248.22;1754836;81;21493;-54
2022/04/28 11:31:46;;;;;;;4.67;1.37;;;;;;;18.05;31.42;101250.03;1752535;80;22291;-52
2022/04/28 11:34:13;;;;;;;3.92;1.30;;;;;;;18.23;30.96;101248.72;1753818;80;21048;-53
2022/04/28 11:36:41;;;;;;;3.55;1.30;;;;;;;18.37;30.12;101253.03;1763228;80;21090;-52
2022/04/28 11:39:10;;;;;;;3.62;1.37;;;;;;;18.48;29.26;101247.12;1772596;80;21015;-53
2022/04/28 11:41:40;;;;;;;3.65;1.40;;;;;;;18.59;29.73;101247.36;1763768;80;21830;-52
2022/04/28 11:44:12;;;;;;;4.90;1.55;;;;;;;18.79;30.76;101235.52;1751259;80;21561;-52
2022/04/28 11:46:51;;;;;;;3.27;1.30;;;;;;;19.07;30.71;101230.89;1718435;82;21036;-53
2022/04/28 11:49:18;;;;;;;3.40;1.02;;;;;;;19.40;30.13;101226.22;1743593;80;21031;-53
2022/04/28 11:51:45;;;;;;;3.25;1.25;;;;;;;19.54;28.15;101220.80;1750059;80;21073;-53
2022/04/28 11:54:21;;;;;;;3.08;1.20;;;;;;;19.61;28.43;101221.81;1765252;80;21153;-53
2022/04/28 11:56:49;;;;;;;3.45;1.02;;;;;;;19.67;28.67;101219.84;1765880;80;21043;-53
2022/04/28 11:59:16;;;;;;;4.37;1.45;;;;;;;19.83;28.94;101218.55;1752141;80;21046;-53
2022/04/28 12:01:44;;;;;;;4.45;1.65;;;;;;;19.93;27.50;101215.75;1757024;80;21066;-53
2022/04/28 12:04:16;;;;;;;3.92;1.77;;;;;;;19.86;25.87;101216.90;1751002;80;21126;-53
2022/04/28 12:06:42;;;;;;;3.42;1.45;;;;;;;19.75;27.36;101211.86;1746973;80;21630;-53